createdAt,value
2023-05-04T00:00:46.168Z,100717.98
2023-05-04T00:03:13.366Z,100722.47
2023-05-04T00:05:40.645Z,100721.85
2023-05-04T00:08:16.897Z,100725.43
2023-05-04T00:10:44.077Z,100730.55
2023-05-04T00:13:14.728Z,100726.38
2023-05-04T00:15:42.118Z,100728.56
2023-05-04T00:18:09.281Z,100726.97
2023-05-04T00:20:43.050Z,100732.83
2023-05-04T00:23:10.143Z,100734.08
2023-05-04T00:25:37.180Z,100739.29
2023-05-04T00:28:04.340Z,100733.16
2023-05-04T00:30:31.693Z,100728.85
2023-05-04T00:32:58.877Z,100735.05
2023-05-04T00:35:30.446Z,100739.27
2023-05-04T00:38:19.606Z,100738.48
2023-05-04T00:40:46.648Z,100736.99
2023-05-04T00:43:13.903Z,100729.65
2023-05-04T00:45:42.076Z,100730.80
2023-05-04T00:48:09.556Z,100734.47
2023-05-04T00:50:36.673Z,100739.00
2023-05-04T00:53:08.453Z,100743.33
2023-05-04T00:55:40.201Z,100744.95
2023-05-04T00:58:08.132Z,100749.15
2023-05-04T01:00:36.653Z,100748.06
2023-05-04T01:03:05.322Z,100751.41
2023-05-04T01:05:38.307Z,100752.48
2023-05-04T01:08:11.601Z,100749.04
2023-05-04T01:10:47.760Z,100745.67
2023-05-04T01:13:17.735Z,100746.39
2023-05-04T01:15:44.993Z,100739.40
2023-05-04T01:18:12.384Z,100743.77
2023-05-04T01:20:39.508Z,100742.44
2023-05-04T01:23:07.164Z,100743.03
2023-05-04T01:25:49.870Z,100737.36
2023-05-04T01:28:19.921Z,100733.98
2023-05-04T01:30:54.313Z,100728.22
2023-05-04T01:33:29.386Z,100724.79
2023-05-04T01:35:59.195Z,100723.52
2023-05-04T01:38:26.389Z,100721.84
2023-05-04T01:40:59.045Z,100723.04
2023-05-04T01:43:26.991Z,100722.45
2023-05-04T01:45:54.097Z,100716.56
2023-05-04T01:48:21.302Z,100713.44
2023-05-04T01:50:50.904Z,100710.46
2023-05-04T01:53:21.444Z,100700.85
2023-05-04T01:55:48.683Z,100702.65
2023-05-04T01:58:33.314Z,100701.61
2023-05-04T02:01:00.884Z,100696.73
2023-05-04T02:03:28.472Z,100695.98
2023-05-04T02:05:55.890Z,100693.52
2023-05-04T02:08:23.455Z,100695.23
2023-05-04T02:10:50.504Z,100693.17
2023-05-04T02:13:18.605Z,100689.70
2023-05-04T02:15:46.404Z,100693.20
2023-05-04T02:18:13.655Z,100693.79
2023-05-04T02:20:41.362Z,100691.52
2023-05-04T02:23:09.332Z,100692.69
2023-05-04T02:25:39.661Z,100694.80
2023-05-04T02:28:07.224Z,100692.95
2023-05-04T02:30:34.787Z,100688.26
2023-05-04T02:33:02.728Z,100699.48
2023-05-04T02:35:29.878Z,100700.70
2023-05-04T02:37:57.232Z,100701.89
2023-05-04T02:40:24.284Z,100700.11
2023-05-04T02:42:51.533Z,100695.98
2023-05-04T02:45:18.798Z,100692.52
2023-05-04T02:47:45.865Z,100692.02
2023-05-04T02:50:13.093Z,100688.66
2023-05-04T02:52:40.138Z,100679.64
2023-05-04T02:55:07.700Z,100682.92
2023-05-04T02:57:34.951Z,100686.41
2023-05-04T03:00:02.410Z,100693.03
2023-05-04T03:02:29.684Z,100691.42
2023-05-04T03:04:56.916Z,100686.48
2023-05-04T03:07:24.068Z,100686.33
2023-05-04T03:09:51.108Z,100685.95
2023-05-04T03:12:18.278Z,100688.64
2023-05-04T03:14:46.405Z,100693.94
2023-05-04T03:17:13.482Z,100702.91
2023-05-04T03:19:40.535Z,100703.82
2023-05-04T03:22:08.920Z,100705.06
2023-05-04T03:24:37.394Z,100706.19
2023-05-04T03:27:04.954Z,100708.02
2023-05-04T03:29:32.932Z,100715.50
2023-05-04T03:32:00.248Z,100715.85
2023-05-04T03:34:27.631Z,100722.07
2023-05-04T03:36:58.478Z,100721.48
2023-05-04T03:39:26.748Z,100712.52
2023-05-04T03:41:54.929Z,100708.52
2023-05-04T03:44:22.795Z,100707.78
2023-05-04T03:46:49.742Z,100709.66
2023-05-04T03:49:16.889Z,100707.65
2023-05-04T03:51:43.942Z,100710.35
2023-05-04T03:54:12.622Z,100714.98
2023-05-04T03:56:39.775Z,100720.45
2023-05-04T03:59:07.133Z,100722.44
2023-05-04T04:01:34.380Z,100727.66
2023-05-04T04:04:02.851Z,100725.33
2023-05-04T04:06:31.145Z,100718.58
2023-05-04T04:08:58.288Z,100713.02
2023-05-04T04:11:26.368Z,100711.14
2023-05-04T04:13:54.131Z,100710.19
2023-05-04T04:16:21.584Z,100714.20
2023-05-04T04:18:49.045Z,100715.58
2023-05-04T04:21:15.963Z,100709.41
2023-05-04T04:23:43.033Z,100711.08
2023-05-04T04:26:10.692Z,100707.28
2023-05-04T04:28:38.152Z,100704.83
2023-05-04T04:31:05.125Z,100704.12
2023-05-04T04:33:32.414Z,100701.54
2023-05-04T04:36:00.889Z,100699.72
2023-05-04T04:38:28.096Z,100706.52
2023-05-04T04:40:55.150Z,100705.98
2023-05-04T04:43:22.189Z,100703.95
2023-05-04T04:45:49.535Z,100707.49
2023-05-04T04:48:19.361Z,100709.48
2023-05-04T04:50:46.911Z,100708.90
2023-05-04T04:53:13.862Z,100706.45
2023-05-04T04:55:42.089Z,100705.73
2023-05-04T04:58:09.807Z,100704.86
2023-05-04T05:00:37.150Z,100704.45
2023-05-04T05:03:05.004Z,100706.27
2023-05-04T05:05:32.376Z,100708.43
2023-05-04T05:07:59.544Z,100708.98
2023-05-04T05:10:26.980Z,100708.52
2023-05-04T05:12:54.171Z,100709.14
2023-05-04T05:15:21.180Z,100708.66
2023-05-04T05:17:48.276Z,100712.94
2023-05-04T05:20:15.818Z,100716.13
2023-05-04T05:22:43.460Z,100718.47
2023-05-04T05:25:11.421Z,100717.80
2023-05-04T05:27:38.468Z,100719.28
2023-05-04T05:30:06.863Z,100719.58
2023-05-04T05:32:34.254Z,100715.83
2023-05-04T05:35:01.469Z,100716.38
2023-05-04T05:37:28.718Z,100714.13
2023-05-04T05:39:55.880Z,100718.20
2023-05-04T05:42:23.239Z,100711.51
2023-05-04T05:44:51.249Z,100710.09
2023-05-04T05:47:18.436Z,100715.02
2023-05-04T05:49:46.472Z,100716.48
2023-05-04T05:52:13.864Z,100721.77
2023-05-04T05:54:41.640Z,100723.92
2023-05-04T05:57:08.776Z,100726.98
2023-05-04T05:59:35.728Z,100726.64
2023-05-04T06:02:02.669Z,100720.96
2023-05-04T06:04:29.979Z,100725.09
2023-05-04T06:06:57.082Z,100727.02
2023-05-04T06:09:24.325Z,100725.98
2023-05-04T06:11:53.349Z,100727.40
2023-05-04T06:14:21.913Z,100725.09
2023-05-04T06:16:49.308Z,100728.87
2023-05-04T06:19:16.513Z,100726.89
2023-05-04T06:21:43.760Z,100729.33
2023-05-04T06:24:11.087Z,100728.73
2023-05-04T06:26:40.448Z,100724.98
2023-05-04T06:29:07.685Z,100727.09
2023-05-04T07:54:02.253Z,100722.52
2023-05-04T07:56:29.428Z,100732.70
2023-05-04T07:58:56.557Z,100731.48
2023-05-04T08:01:24.814Z,100732.04
2023-05-04T08:03:52.103Z,100735.05
2023-05-04T08:06:19.147Z,100730.95
2023-05-04T08:08:46.690Z,100740.92
2023-05-04T08:11:20.551Z,100737.58
2023-05-04T08:13:49.077Z,100741.98
2023-05-04T08:16:16.528Z,100732.90
2023-05-04T08:18:43.871Z,100727.20
2023-05-04T08:21:10.907Z,100726.11
2023-05-04T08:23:38.059Z,100723.64
2023-05-04T08:26:05.627Z,100725.13
2023-05-04T08:28:40.937Z,100722.05
2023-05-04T08:31:08.224Z,100717.04
2023-05-04T08:33:35.318Z,100716.49
2023-05-04T08:36:04.235Z,100713.66
2023-05-04T08:38:31.574Z,100709.20
2023-05-04T08:40:58.886Z,100705.51
2023-05-04T08:43:25.873Z,100702.94
2023-05-04T08:45:52.951Z,100705.86
2023-05-04T08:48:20.063Z,100709.35
2023-05-04T08:50:53.154Z,100712.55
2023-05-04T08:53:20.613Z,100703.85
2023-05-04T08:55:50.625Z,100705.87
2023-05-04T08:58:18.283Z,100706.59
2023-05-04T09:00:45.465Z,100705.09
2023-05-04T09:03:13.715Z,100707.15
2023-05-04T09:05:44.157Z,100707.52
2023-05-04T09:08:11.521Z,100715.09
2023-05-04T09:10:38.645Z,100712.98
2023-05-04T09:13:05.859Z,100711.71
2023-05-04T09:15:33.458Z,100710.98
2023-05-04T09:18:04.950Z,100709.48
2023-05-04T09:20:32.307Z,100709.02
2023-05-04T09:23:07.652Z,100708.95
2023-05-04T09:25:48.962Z,100708.07
2023-05-04T09:28:16.664Z,100703.25
2023-05-04T09:30:44.069Z,100701.94
2023-05-04T09:33:11.443Z,100700.97
2023-05-04T09:35:42.562Z,100702.38
2023-05-04T09:38:09.736Z,100698.95
2023-05-04T09:40:46.299Z,100697.67
2023-05-04T09:43:13.763Z,100697.48
2023-05-04T09:45:41.528Z,100696.08
2023-05-04T09:48:37.245Z,100690.88
2023-05-04T09:51:06.425Z,100690.11
2023-05-04T09:53:33.504Z,100694.27
2023-05-04T09:56:07.301Z,100697.04
2023-05-04T09:58:35.416Z,100699.20
2023-05-04T10:01:02.720Z,100694.80
2023-05-04T10:03:30.500Z,100691.29
2023-05-04T10:06:00.202Z,100693.63
2023-05-04T10:08:28.581Z,100695.27
2023-05-04T10:10:55.628Z,100692.44
2023-05-04T10:13:23.825Z,100690.95
2023-05-04T10:16:14.663Z,100690.35
2023-05-04T10:19:00.818Z,100686.72
2023-05-04T10:21:40.138Z,100684.27
2023-05-04T10:24:13.664Z,100679.88
2023-05-04T10:27:01.167Z,100676.31
2023-05-04T10:29:29.781Z,100670.23
2023-05-04T10:31:57.888Z,100664.99
2023-05-04T10:34:35.303Z,100666.57
2023-05-04T10:37:03.524Z,100662.17
2023-05-04T10:39:31.997Z,100660.52
2023-05-04T10:42:04.054Z,100660.64
2023-05-04T10:44:32.727Z,100657.27
2023-05-04T10:47:07.912Z,100659.12
2023-05-04T10:49:44.226Z,100657.30
2023-05-04T10:52:13.045Z,100655.98
2023-05-04T10:54:41.592Z,100650.20
2023-05-04T10:57:10.572Z,100647.62
2023-05-04T10:59:42.975Z,100644.99
2023-05-04T11:02:22.726Z,100647.23
2023-05-04T11:05:00.544Z,100647.14
2023-05-04T11:07:38.376Z,100642.93
2023-05-04T11:10:07.113Z,100645.51
2023-05-04T11:12:43.851Z,100641.41
2023-05-04T11:15:14.099Z,100639.77
2023-05-04T11:17:52.205Z,100641.02
2023-05-04T11:20:26.702Z,100639.18
2023-05-04T11:22:54.373Z,100638.73
2023-05-04T11:25:28.568Z,100640.59
2023-05-04T11:27:56.839Z,100641.67
2023-05-04T11:30:34.207Z,100638.78
2023-05-04T11:33:02.917Z,100636.70
2023-05-04T11:35:30.338Z,100632.67
2023-05-04T11:37:57.592Z,100623.54
2023-05-04T11:40:27.205Z,100618.17
2023-05-04T11:42:56.921Z,100620.05
2023-05-04T11:45:25.577Z,100621.81
2023-05-04T11:47:53.447Z,100616.96
2023-05-04T11:50:21.028Z,100619.76
2023-05-04T11:52:48.175Z,100620.28
2023-05-04T11:55:28.537Z,100612.74
2023-05-04T11:58:03.514Z,100611.64
2023-05-04T12:00:43.978Z,100608.02
2023-05-04T12:03:15.952Z,100601.21
2023-05-04T12:05:47.576Z,100597.29
2023-05-04T12:08:27.848Z,100587.61
2023-05-04T12:11:25.803Z,100588.16
2023-05-04T12:14:07.228Z,100592.16
2023-05-04T12:16:34.561Z,100588.64
2023-05-04T12:19:05.169Z,100589.48
2023-05-04T12:21:32.926Z,100590.13
2023-05-04T12:24:04.553Z,100582.05
2023-05-04T12:26:31.913Z,100579.45
2023-05-04T12:28:58.959Z,100578.52
2023-05-04T12:31:27.374Z,100572.92
2023-05-04T12:33:54.487Z,100569.22
2023-05-04T12:36:21.466Z,100566.17
2023-05-04T12:38:48.621Z,100564.55
2023-05-04T12:41:15.541Z,100562.71
2023-05-04T12:43:43.305Z,100558.95
2023-05-04T12:46:10.750Z,100558.69
2023-05-04T12:48:37.978Z,100556.77
2023-05-04T12:51:05.357Z,100559.62
2023-05-04T12:53:32.557Z,100557.95
2023-05-04T12:56:00.188Z,100558.02
2023-05-04T12:58:27.881Z,100560.13
2023-05-04T13:00:55.862Z,100559.28
2023-05-04T13:03:23.745Z,100559.46
2023-05-04T13:05:51.486Z,100555.19
2023-05-04T13:08:19.982Z,100552.41
2023-05-04T13:10:47.508Z,100557.56
2023-05-04T13:13:17.406Z,100555.86
2023-05-04T13:15:45.365Z,100551.68
2023-05-04T13:18:13.261Z,100553.15
2023-05-04T13:20:41.041Z,100555.06
2023-05-04T13:23:08.419Z,100549.52
2023-05-04T13:25:35.363Z,100548.16
2023-05-04T13:28:02.425Z,100547.66
2023-05-04T13:30:29.976Z,100541.55
2023-05-04T13:32:57.059Z,100539.08
2023-05-04T13:35:24.280Z,100532.77
2023-05-04T13:37:51.801Z,100538.73
2023-05-04T13:40:18.909Z,100536.17
2023-05-04T13:42:46.041Z,100535.84
2023-05-04T13:45:13.411Z,100536.52
2023-05-04T13:47:40.967Z,100533.55
2023-05-04T13:50:08.866Z,100528.58
2023-05-04T13:52:37.008Z,100534.91
2023-05-04T13:55:05.023Z,100533.47
2023-05-04T13:57:32.493Z,100530.98
2023-05-04T14:00:06.345Z,100531.20
2023-05-04T14:02:38.836Z,100534.38
2023-05-04T14:05:07.744Z,100537.38
2023-05-04T14:07:35.129Z,100534.81
2023-05-04T14:10:02.802Z,100536.89
2023-05-04T14:12:29.986Z,100537.71
2023-05-04T14:14:57.665Z,100538.11
2023-05-04T14:17:25.509Z,100543.55
2023-05-04T14:19:52.718Z,100543.23
2023-05-04T14:22:19.870Z,100545.17
2023-05-04T14:24:47.109Z,100537.30
2023-05-04T14:27:14.328Z,100529.73
2023-05-04T14:29:41.434Z,100533.38
2023-05-04T14:32:08.570Z,100529.85
2023-05-04T14:34:36.713Z,100527.54
2023-05-04T14:37:03.714Z,100519.96
2023-05-04T14:39:31.086Z,100514.81
2023-05-04T14:41:58.397Z,100514.34
2023-05-04T14:44:28.164Z,100514.54
2023-05-04T14:46:56.330Z,100519.42
2023-05-04T14:49:36.468Z,100512.92
2023-05-04T14:52:05.278Z,100514.44
2023-05-04T14:54:32.831Z,100523.02
2023-05-04T14:57:00.126Z,100523.35
2023-05-04T14:59:27.956Z,100524.53
2023-05-04T15:01:55.619Z,100523.02
2023-05-04T15:04:23.141Z,100525.60
2023-05-04T15:06:50.398Z,100531.73
2023-05-04T15:09:17.463Z,100533.59
2023-05-04T15:11:44.504Z,100538.63
2023-05-04T15:14:11.881Z,100537.27
2023-05-04T15:16:38.954Z,100539.52
2023-05-04T15:19:06.661Z,100536.86
2023-05-04T15:21:34.326Z,100535.30
2023-05-04T15:24:01.476Z,100534.73
2023-05-04T15:26:31.630Z,100533.85
2023-05-04T15:29:01.823Z,100534.92
2023-05-04T15:31:29.401Z,100538.83
2023-05-04T15:33:56.834Z,100535.63
2023-05-04T15:36:24.834Z,100538.65
2023-05-04T15:38:54.923Z,100538.16
2023-05-04T15:41:24.958Z,100535.86
2023-05-04T15:43:52.195Z,100538.70
2023-05-04T15:46:19.364Z,100544.92
2023-05-04T15:48:49.570Z,100553.85
2023-05-04T15:51:35.127Z,100552.77
2023-05-04T15:54:03.592Z,100556.96
2023-05-04T15:56:31.093Z,100553.88
2023-05-04T15:58:58.455Z,100561.80
2023-05-04T16:01:25.920Z,100561.09
2023-05-04T16:03:59.773Z,100559.34
2023-05-04T16:06:30.053Z,100565.95
2023-05-04T16:08:57.775Z,100562.10
2023-05-04T16:11:31.022Z,100564.34
2023-05-04T16:13:58.245Z,100568.23
2023-05-04T16:16:25.334Z,100578.23
2023-05-04T16:18:53.267Z,100567.20
2023-05-04T16:21:20.213Z,100572.49
2023-05-04T16:23:47.244Z,100578.63
2023-05-04T16:26:14.590Z,100579.66
2023-05-04T16:28:41.646Z,100586.44
2023-05-04T16:31:11.685Z,100589.25
2023-05-04T16:33:39.277Z,100592.14
2023-05-04T16:36:07.199Z,100590.70
2023-05-04T16:38:34.273Z,100593.39
2023-05-04T16:41:01.395Z,100593.77
2023-05-04T16:43:28.546Z,100594.52
2023-05-04T16:45:56.457Z,100589.65
2023-05-04T16:48:27.452Z,100590.33
2023-05-04T16:50:54.502Z,100587.54
2023-05-04T16:53:21.597Z,100591.59
2023-05-04T16:55:51.059Z,100594.20
2023-05-04T16:58:18.206Z,100597.20
2023-05-04T17:00:48.334Z,100603.94
2023-05-04T17:03:15.875Z,100604.95
2023-05-04T17:05:43.087Z,100604.09
2023-05-04T17:08:17.760Z,100604.99
2023-05-04T17:10:45.017Z,100603.13
2023-05-04T17:13:12.399Z,100609.70
2023-05-04T17:15:40.062Z,100609.98
2023-05-04T17:18:07.407Z,100617.70
2023-05-04T17:20:34.637Z,100622.02
2023-05-04T17:23:02.074Z,100622.12
2023-05-04T17:25:29.551Z,100624.33
2023-05-04T17:27:59.867Z,100626.96
2023-05-04T17:30:27.539Z,100634.94
2023-05-04T17:32:57.580Z,100635.67
2023-05-04T17:35:26.438Z,100639.91
2023-05-04T17:37:58.768Z,100645.41
2023-05-04T17:40:29.635Z,100644.11
2023-05-04T17:42:57.171Z,100645.08
2023-05-04T17:45:24.366Z,100640.66
2023-05-04T17:47:54.653Z,100643.02
2023-05-04T17:50:22.249Z,100641.22
2023-05-04T17:52:55.921Z,100640.00
2023-05-04T17:55:24.977Z,100637.00
2023-05-04T17:57:53.888Z,100628.36
2023-05-04T18:00:21.406Z,100637.23
2023-05-04T18:02:48.804Z,100640.41
2023-05-04T18:05:26.447Z,100645.80
2023-05-04T18:07:53.809Z,100638.36
2023-05-04T18:10:21.181Z,100637.68
2023-05-04T18:12:48.451Z,100641.66
2023-05-04T18:15:16.753Z,100643.70
2023-05-04T18:17:43.930Z,100644.86
2023-05-04T18:20:13.369Z,100643.23
2023-05-04T18:22:42.551Z,100644.59
2023-05-04T18:25:10.260Z,100646.45
2023-05-04T18:27:37.498Z,100646.76
2023-05-04T18:30:05.763Z,100650.23
2023-05-04T18:32:36.737Z,100648.29
2023-05-04T18:35:04.240Z,100651.30
2023-05-04T18:37:31.787Z,100650.98
2023-05-04T18:39:59.151Z,100654.02
2023-05-04T18:42:26.763Z,100657.15
2023-05-04T18:44:54.572Z,100661.36
2023-05-04T18:47:22.686Z,100664.39
2023-05-04T18:50:00.239Z,100667.48
2023-05-04T18:52:27.292Z,100665.42
2023-05-04T18:54:55.165Z,100659.29
2023-05-04T18:57:22.411Z,100667.52
2023-05-04T18:59:49.464Z,100665.90
2023-05-04T19:02:16.523Z,100658.81
2023-05-04T19:04:47.285Z,100654.19
2023-05-04T19:07:16.099Z,100651.59
2023-05-04T19:09:45.903Z,100643.55
2023-05-04T19:12:14.353Z,100640.40
2023-05-04T19:14:43.634Z,100630.88
2023-05-04T19:17:10.860Z,100629.27
2023-05-04T19:19:40.876Z,100630.81
2023-05-04T19:22:07.826Z,100631.52
2023-05-04T19:24:36.522Z,100631.19
2023-05-04T19:27:04.172Z,100630.48
2023-05-04T19:29:31.329Z,100633.98
2023-05-04T19:32:01.311Z,100639.05
2023-05-04T19:34:35.252Z,100647.37
2023-05-04T19:37:02.404Z,100648.29
2023-05-04T19:39:29.857Z,100639.49
2023-05-04T19:41:59.772Z,100622.00
2023-05-04T19:44:27.638Z,100608.03
2023-05-04T19:46:54.855Z,100606.98
2023-05-04T19:49:22.193Z,100599.02
2023-05-04T19:51:49.392Z,100603.55
2023-05-04T19:54:16.548Z,100607.63
2023-05-04T19:56:43.912Z,100615.80
2023-05-04T19:59:11.154Z,100622.02
2023-05-04T20:02:20.536Z,100627.42
2023-05-04T20:04:48.316Z,100629.92
2023-05-04T20:07:15.407Z,100629.52
2023-05-04T20:09:42.558Z,100625.45
2023-05-04T20:12:09.528Z,100619.35
2023-05-04T20:14:36.612Z,100616.48
2023-05-04T20:17:03.801Z,100618.20
2023-05-04T20:19:31.367Z,100624.45
2023-05-04T20:21:58.460Z,100624.89
2023-05-04T20:24:26.290Z,100627.31
2023-05-04T20:26:53.520Z,100627.31
2023-05-04T20:29:21.385Z,100625.80
2023-05-04T20:31:48.460Z,100621.31
2023-05-04T20:34:16.864Z,100609.70
2023-05-04T20:36:46.421Z,100597.65
2023-05-04T20:39:13.670Z,100593.38
2023-05-04T20:41:41.333Z,100592.19
2023-05-04T20:44:08.490Z,100594.15
2023-05-04T20:46:35.815Z,100602.28
2023-05-04T20:49:03.520Z,100610.27
2023-05-04T20:51:31.277Z,100622.87
2023-05-04T20:53:58.691Z,100623.91
2023-05-04T20:56:25.985Z,100615.89
2023-05-04T20:58:53.231Z,100620.61
2023-05-04T21:01:20.458Z,100622.83
2023-05-04T21:03:47.715Z,100630.92
2023-05-04T21:06:15.201Z,100626.05
2023-05-04T21:08:42.139Z,100615.62
2023-05-04T21:11:09.322Z,100597.51
2023-05-04T21:13:36.237Z,100582.65
2023-05-04T21:16:03.325Z,100581.51
2023-05-04T21:18:30.342Z,100592.21
2023-05-04T21:20:57.380Z,100605.14
2023-05-04T21:23:25.349Z,100611.86
2023-05-04T21:26:00.645Z,100614.22
2023-05-04T21:28:27.843Z,100600.27
2023-05-04T21:30:54.781Z,100589.63
2023-05-04T21:33:21.831Z,100587.06
2023-05-04T21:35:48.874Z,100586.90
2023-05-04T21:38:17.390Z,100588.29
2023-05-04T21:40:45.535Z,100582.87
2023-05-04T21:43:12.582Z,100573.27
2023-05-04T21:45:39.587Z,100567.93
2023-05-04T21:48:06.999Z,100593.36
2023-05-04T21:50:34.034Z,100628.88
2023-05-04T21:53:01.184Z,100646.70
2023-05-04T21:55:29.384Z,100645.87
2023-05-04T21:57:56.386Z,100631.86
2023-05-04T22:00:24.133Z,100622.48
2023-05-04T22:02:54.045Z,100615.66
2023-05-04T22:05:22.726Z,100610.21
2023-05-04T22:07:50.376Z,100601.46
2023-05-04T22:10:18.183Z,100578.95
2023-05-04T22:12:45.246Z,100560.00
2023-05-04T22:15:12.478Z,100552.88
2023-05-04T22:17:39.685Z,100558.50
2023-05-04T22:20:08.113Z,100563.91
2023-05-04T22:22:35.947Z,100580.69
2023-05-04T22:25:03.452Z,100593.61
2023-05-04T22:27:30.569Z,100607.98
2023-05-04T22:29:57.714Z,100620.15
2023-05-04T22:32:24.826Z,100629.67
2023-05-04T22:34:51.811Z,100637.32
2023-05-04T22:37:18.965Z,100635.44
2023-05-04T22:39:46.430Z,100631.52
2023-05-04T22:42:13.776Z,100617.31
2023-05-04T22:44:41.133Z,100610.70
2023-05-04T22:47:08.609Z,100606.02
2023-05-04T22:49:35.890Z,100610.41
2023-05-04T22:52:03.100Z,100604.89
2023-05-04T22:54:30.245Z,100602.70
2023-05-04T22:56:57.411Z,100597.70
2023-05-04T22:59:24.360Z,100601.30
2023-05-04T23:01:51.490Z,100602.55
2023-05-04T23:04:18.648Z,100604.09
2023-05-04T23:06:45.799Z,100605.30
2023-05-04T23:09:14.386Z,100601.06
2023-05-04T23:11:41.957Z,100590.61
2023-05-04T23:14:09.097Z,100584.98
2023-05-04T23:16:36.208Z,100590.66
2023-05-04T23:19:03.942Z,100593.33
2023-05-04T23:21:31.781Z,100596.14
2023-05-04T23:23:58.929Z,100597.45
2023-05-04T23:26:25.991Z,100596.11
2023-05-04T23:28:53.027Z,100596.21
2023-05-04T23:31:20.214Z,100593.07
2023-05-04T23:33:47.325Z,100599.48
2023-05-04T23:36:14.542Z,100594.29
2023-05-04T23:38:41.833Z,100594.20
2023-05-04T23:41:08.879Z,100593.45
2023-05-04T23:43:36.237Z,100594.16
2023-05-04T23:46:04.258Z,100593.39
2023-05-04T23:48:32.210Z,100592.16
2023-05-04T23:51:04.136Z,100588.21
2023-05-04T23:53:34.260Z,100584.55
2023-05-04T23:56:05.603Z,100588.48
2023-05-04T23:58:33.552Z,100582.29
